• Join FlightAware (Why Join?)
  • Login
  • US Flag 
 
02:22AM EST


 

Airport Tracker/Info


-or-


 

Live Flight TrackerFlight Track Log ✈ AWI3725 ✈ 30-Apr-2014 ✈ KBGR - KDCA

Flight Track Log - Related Links

Times and Time Zones

All times are in EDT time to prevent confusion due to time zone crossing. See the AWI3725 flight status page for this flight to view local times or setup timezone preferences in your user account.

Time Position Orientation Groundspeed Altitude Reporting Facility
EDT Latitude Longitude Course Direction KTS MPH feet Rate Location/Type
02:06PM 44.8533 -68.9131 221° Southwest 196 226 3,500  Level Boston Center
02:07PM 44.8133 -68.9789 229° Southwest 226 260 5,100 1,920 Climbing Boston Center
02:08PM 44.7594 -69.0458 221° Southwest 248 285 7,500 2,160 Climbing Boston Center
02:09PM 44.4779 -69.2484 226° Southwest  Level FlightAware Approximate
02:09PM 44.7028 -69.1131 220° Southwest 256 295 9,600  Level Boston Center
02:10PM 44.4149 -69.3384 226° Southwest  Level FlightAware Approximate
02:10PM 44.6422 -69.1836 220° Southwest 271 312 11,600  Level Boston Center
02:11PM 44.3478 -69.4273 221° Southwest  Level FlightAware Approximate
02:11PM 44.5753 -69.2647 221° Southwest 304 350 13,100  Level Boston Center
02:12PM 44.2785 -69.5127 221° Southwest  Level FlightAware Approximate
02:12PM 44.5031 -69.3519 221° Southwest 332 382 14,600  Level Boston Center
02:13PM 44.4286 -69.4403 220° Southwest 343 395 16,100 1,260 Climbing Boston Center
02:14PM 44.3514 -69.5317 220° Southwest 355 409 17,300 780 Climbing Boston Center
02:15PM 44.2703 -69.6283 220° Southwest 374 430 17,800 840 Climbing Boston Center
02:17PM 44.1894 -69.7261 221° Southwest 383 441 19,100 1,260 Climbing Boston Center
02:18PM 44.1114 -69.8178 220° Southwest 366 421 20,400 1,260 Climbing Boston Center
02:19PM 44.0333 -69.9092 220° Southwest 367 422 21,700 900 Climbing Boston Center
02:20PM 43.9572 -69.9989 220° Southwest 357 411 22,300 540 Climbing Boston Center
02:21PM 43.8772 -70.0942 221° Southwest 380 437 22,800 660 Climbing Boston Center
02:22PM 43.7964 -70.1897 220° Southwest 380 437 23,700 900 Climbing Boston Center
02:23PM 43.7153 -70.2842 220° Southwest 379 436 24,700 960 Climbing Boston Center
02:24PM 43.6350 -70.3747 219° Southwest 372 428 25,700 780 Climbing Boston Center
02:25PM 43.5397 -70.4828 219° Southwest 368 423 26,300 540 Climbing Boston Center
02:26PM 43.4581 -70.5767 220° Southwest 375 432 26,800 480 Climbing Boston Center
02:27PM 43.3767 -70.6464 212° Southwest 394 453 27,300 480 Climbing Boston Center
02:28PM 43.2778 -70.7094 205° Southwest 394 453 27,800 480 Climbing Boston Center
02:29PM 43.1792 -70.7725 205° Southwest 392 451 28,300 540 Climbing Boston Center
02:30PM 43.0606 -70.8425 203° Southwest 390 449 28,900 540 Climbing Boston Center
02:31PM 42.9575 -70.8933 200° South 392 451 29,400 480 Climbing Boston Center
02:32PM 42.8550 -70.9442 200° South 392 451 29,900 240 Climbing Boston Center
02:33PM 42.7519 -70.9967 201° Southwest 395 455 30,000  Climbing Boston Center
02:34PM 42.6497 -71.0461 200° South 394 453 30,000  Level Boston Center
02:35PM 42.5475 -71.0958 200° South 394 453 30,000  Level Boston Center
02:36PM 42.4672 -71.1761 216° Southwest 377 434 30,000  Level Boston Center
02:37PM 42.4142 -71.2894 238° Southwest 363 418 30,000  Level Boston Center
02:38PM 42.3611 -71.4011 237° Southwest 359 413 30,000  Level Boston Center
02:39PM 42.2961 -71.5350 237° Southwest 359 413 30,000  Level Boston Center
02:40PM 42.2419 -71.6481 237° Southwest 359 413 30,000  Level Boston Center
02:41PM 42.1883 -71.7594 237° Southwest 359 413 30,000  Level Boston Center
02:42PM 42.1344 -71.8708 237° Southwest 359 413 30,000  Level Boston Center
02:43PM 42.0814 -71.9814 237° Southwest 355 409 30,000  Level Boston Center
02:44PM 42.0269 -72.0928 237° Southwest 355 409 30,000  Level Boston Center
02:45PM 41.9706 -72.2061 236° Southwest 357 411 30,000  Level Boston Center
02:46PM 41.9158 -72.3192 237° Southwest 358 412 30,000  Level Boston Center
02:47PM 41.8594 -72.4331 236° Southwest 362 417 30,000  Level Boston Center
02:48PM 41.8022 -72.5464 236° Southwest 363 418 30,000  Level Boston Center
02:49PM 41.7453 -72.6633 237° Southwest 369 425 30,000  Level Boston Center
02:50PM 41.6869 -72.7778 236° Southwest 370 426 30,000  Level Boston Center
02:51PM 41.6181 -72.9169 237° Southwest 371 427 30,000  Level Boston Center
02:52PM 41.5600 -73.0328 236° Southwest 372 428 30,000  Level Boston Center
02:53PM 41.5058 -73.1392 236° Southwest 373 429 30,000  Level Boston Center
02:54PM 41.4472 -73.2556 236° Southwest 375 432 30,000  Level Boston Center
02:55PM 41.3894 -73.3675 235° Southwest 375 432 30,000  Level Boston Center
02:56PM 41.3192 -73.5039 236° Southwest 374 430 30,000  Level Boston Center
02:57PM 41.2600 -73.6169 235° Southwest 374 430 30,000  Level Boston Center
02:58PM 41.1961 -73.7236 232° Southwest 374 430 30,000  Level Boston Center
02:59PM 41.1319 -73.8314 232° Southwest 374 430 30,000  Level Boston Center
03:00PM 41.0711 -73.9389 233° Southwest 384 442 30,000 -300 Level New York Center
03:01PM 41.0058 -74.0486 232° Southwest 384 442 29,400 -840 Descending New York Center
03:02PM 40.9381 -74.1606 231° Southwest 389 448 28,400 -720 Descending New York Center
03:03PM 40.8592 -74.2883 231° Southwest 395 455 28,000 -240 Descending New York Center
03:04PM 40.7933 -74.4003 232° Southwest 395 455 28,000  Level New York Center
03:05PM 40.7253 -74.5089 230° Southwest 395 455 28,000  Level New York Center
03:06PM 40.6594 -74.6147 231° Southwest 395 455 28,000  Level New York Center
03:07PM 40.5956 -74.7231 232° Southwest 390 449 28,000  Level New York Center
03:08PM 40.5275 -74.8231 228° Southwest 385 443 28,000  Level New York Center
03:09PM 40.4572 -74.9225 227° Southwest 385 443 28,000 -420 Level New York Center
03:10PM 40.3872 -75.0192 226° Southwest 379 436 27,200 -1,200 Descending New York Center
03:11PM 40.3167 -75.1236 228° Southwest 380 437 25,600 -1,560 Descending New York Center
03:12PM 40.2486 -75.2172 226° Southwest 388 447 24,100 -1,500 Descending New York Center
03:13PM 40.1867 -75.3083 228° Southwest 374 430 22,600 -1,080 Descending New York Center
03:14PM 40.1394 -75.4003 236° Southwest 340 391 22,000 -300 Descending New York Center
03:15PM 40.1003 -75.4928 241° Southwest 311 358 22,000  Level New York Center
03:16PM 40.0586 -75.5956 242° Southwest 306 352 22,000 -540 Level New York Center
03:17PM 40.0189 -75.7014 244° Southwest 316 364 21,000 -1,020 Descending New York Center
03:18PM 39.9747 -75.8092 242° Southwest 334 384 20,000 -1,200 Descending New York Center
03:19PM 39.9306 -75.9144 241° Southwest 334 384 18,600 -1,500 Descending New York Center
03:20PM 39.8861 -76.0247 242° Southwest 327 376 17,100 -1,620 Descending New York Center
03:22PM 39.8167 -76.1833 240° Southwest 315 362 14,600 -1,620 Descending Potomac TRACON
03:23PM 39.7833 -76.2833 247° West 301 346 13,100 -1,320 Descending Potomac TRACON
03:24PM 39.7667 -76.3833 258° West 290 334 12,000 -960 Descending Potomac TRACON
03:25PM 39.7833 -76.4833 282° West 281 323 11,200 -900 Descending Potomac TRACON
03:26PM 39.7667 -76.5500 252° West 252 290 10,300 -1,140 Descending Potomac TRACON
03:27PM 39.7167 -76.6333 232° Southwest 246 283 9,000 -660 Descending Potomac TRACON
03:28PM 39.6667 -76.6833 218° Southwest 248 285 9,000 -300 Level Potomac TRACON
03:29PM 39.6000 -76.7333 210° Southwest 253 291 8,500 -540 Descending Potomac TRACON
03:30PM 39.5500 -76.8000 226° Southwest 251 289 8,000 -420 Descending Potomac TRACON
03:31PM 39.5000 -76.8333 207° Southwest 247 284 7,800 -840 Descending Potomac TRACON
03:32PM 39.4333 -76.8833 210° Southwest 235 270 6,400 -900 Descending Potomac TRACON
03:33PM 39.3833 -76.9333 218° Southwest 227 261 6,000 -240 Descending Potomac TRACON
03:34PM 39.3333 -76.9833 218° Southwest 235 270 6,000 -240 Level Potomac TRACON
03:35PM 39.2833 -77.0333 218° Southwest 236 272 5,600 -540 Descending Potomac TRACON
03:36PM 39.2333 -77.0833 218° Southwest 228 262 5,000 -600 Descending Potomac TRACON
03:37PM 39.1833 -77.1333 218° Southwest 231 266 4,400 -540 Descending Potomac TRACON
03:38PM 39.1333 -77.1667 207° Southwest 232 267 4,000 -240 Descending Potomac TRACON
03:39PM 39.0833 -77.2333 226° Southwest 227 261 4,000  Level Potomac TRACON
03:40PM 39.0333 -77.2667 207° Southwest 232 267 4,000  Level Potomac TRACON
03:41PM 38.9667 -77.2500 169° South 244 281 4,000  Level Potomac TRACON
03:42PM 38.9000 -77.2333 169° South 243 280 4,000  Level Potomac TRACON
03:43PM 38.8333 -77.2000 159° South 241 277 4,000  Level Potomac TRACON
03:44PM 38.7833 -77.1833 165° South 187 215 4,000  Level Potomac TRACON
03:45PM 38.7333 -77.1500 153° Southeast 177 204 4,000  Level Potomac TRACON
03:46PM 38.6833 -77.1333 165° South 189 217 4,000 -540 Level Potomac TRACON
03:47PM 38.6500 -77.1167 159° South 198 228 3,000 -840 Descending Potomac TRACON
03:48PM 38.6500 -77.0333 90° East 194 223 2,500 -300 Descending Potomac TRACON
03:49PM 38.7000 -77.0167 15° North 196 226 2,500 -300 Level Potomac TRACON
03:50PM 38.7500 -77.0333 345° North 193 222 2,000 -840 Descending Potomac TRACON
03:51PM 38.8000 -77.0333 360° North 165 190 900 -1,020 Descending Potomac TRACON